Time;durP1;ratioP1;P1;durP2;ratioP2;P2;SDS_P1;SDS_P2;PMS_P1;PMS_P2;Temp;Humidity;BMP_temperature;BMP_pressure;BME280_temperature;BME280_humidity;BME280_pressure;Samples;Min_cycle;Max_cycle;Signal;HPM_P1;HPM_P2
2023/08/04 00:01:20;;;;;;;0.70;0.35;;;17.40;69.10;;;;;;4939184;28;20046;-62
2023/08/04 00:03:45;;;;;;;1.50;0.45;;;17.50;69.00;;;;;;4939706;28;20037;-62
2023/08/04 00:06:11;;;;;;;1.20;0.40;;;17.40;69.20;;;;;;4939497;28;20066;-62
2023/08/04 00:08:37;;;;;;;2.05;0.40;;;17.40;69.30;;;;;;4938475;28;20491;-62
2023/08/04 00:11:03;;;;;;;2.05;0.43;;;17.40;69.70;;;;;;4940853;28;20054;-62
2023/08/04 00:13:30;;;;;;;0.75;0.45;;;17.30;69.80;;;;;;4941962;28;20092;-62
2023/08/04 00:16:09;;;;;;;2.25;0.50;;;17.30;69.70;;;;;;4940526;28;20177;-61
2023/08/04 00:18:35;;;;;;;0.55;0.40;;;17.40;70.20;;;;;;4940546;28;20046;-61
2023/08/04 00:21:02;;;;;;;2.33;0.60;;;17.40;69.60;;;;;;4940709;28;20055;-63
2023/08/04 00:23:27;;;;;;;1.42;0.52;;;17.40;69.70;;;;;;4939729;28;20038;-61
2023/08/04 00:25:53;;;;;;;0.65;0.40;;;17.50;69.60;;;;;;4938619;28;20043;-61
2023/08/04 00:28:19;;;;;;;1.02;0.40;;;17.50;69.30;;;;;;4940611;28;20047;-62
2023/08/04 00:30:44;;;;;;;2.55;0.43;;;17.60;69.30;;;;;;4938413;28;20254;-62
2023/08/04 00:33:10;;;;;;;1.65;0.40;;;17.60;69.30;;;;;;4941627;29;20416;-61
2023/08/04 00:35:36;;;;;;;1.13;0.40;;;17.70;69.50;;;;;;4942775;28;20047;-62
2023/08/04 00:38:01;;;;;;;2.35;0.60;;;17.70;69.30;;;;;;4942824;29;20106;-62
2023/08/04 00:40:30;;;;;;;0.95;0.38;;;17.70;69.20;;;;;;4941748;28;20027;-62
2023/08/04 00:42:56;;;;;;;1.92;0.50;;;17.70;69.30;;;;;;4942706;28;20062;-60
2023/08/04 00:45:24;;;;;;;1.77;0.45;;;17.70;69.30;;;;;;4940979;28;20267;-62
2023/08/04 00:47:54;;;;;;;0.50;0.32;;;17.70;69.50;;;;;;4940614;28;20031;-61
2023/08/04 00:50:20;;;;;;;1.73;0.52;;;17.70;69.70;;;;;;4939093;28;20031;-61
2023/08/04 00:52:48;;;;;;;0.77;0.25;;;17.70;69.50;;;;;;4937266;28;20483;-61
2023/08/04 00:55:14;;;;;;;1.88;0.40;;;17.70;69.70;;;;;;4938226;28;20035;-62
2023/08/04 00:57:40;;;;;;;0.90;0.30;;;17.70;69.70;;;;;;4938034;28;20043;-61
2023/08/04 01:00:06;;;;;;;0.50;0.40;;;17.70;69.70;;;;;;4939590;28;20321;-61
2023/08/04 01:02:33;;;;;;;0.52;0.30;;;17.70;69.70;;;;;;4940147;28;20040;-61
2023/08/04 01:05:01;;;;;;;1.35;0.30;;;17.60;69.90;;;;;;4938486;28;20081;-62
2023/08/04 01:07:30;;;;;;;0.98;0.40;;;17.70;70.00;;;;;;4937467;28;20059;-62
2023/08/04 01:10:23;;;;;;;0.60;0.30;;;17.60;70.20;;;;;;4938288;28;20511;-62
2023/08/04 01:13:04;;;;;;;2.13;0.47;;;17.60;70.50;;;;;;4939490;28;20050;-62
2023/08/04 01:15:31;;;;;;;2.10;0.55;;;17.60;70.90;;;;;;4939521;28;20122;-60
2023/08/04 01:17:57;;;;;;;1.45;0.50;;;17.60;69.90;;;;;;4937073;28;20474;-62
2023/08/04 01:20:24;;;;;;;2.63;0.60;;;17.60;69.70;;;;;;4939571;28;20130;-62
2023/08/04 01:22:51;;;;;;;1.80;0.40;;;17.60;69.70;;;;;;4936920;28;20442;-61
2023/08/04 01:25:17;;;;;;;0.63;0.30;;;17.50;70.00;;;;;;4938135;28;20654;-59
2023/08/04 01:27:46;;;;;;;1.40;0.40;;;17.50;70.10;;;;;;4941715;28;20059;-61
2023/08/04 01:30:21;;;;;;;1.75;0.50;;;17.50;70.50;;;;;;4938851;28;20031;-60
2023/08/04 01:32:47;;;;;;;0.73;0.30;;;17.50;70.80;;;;;;4937283;28;20930;-60
2023/08/04 01:35:14;;;;;;;1.27;0.40;;;17.50;70.40;;;;;;4937329;28;20704;-62
2023/08/04 01:37:40;;;;;;;1.08;0.40;;;17.50;70.70;;;;;;4936736;28;20043;-63
2023/08/04 01:40:06;;;;;;;1.50;0.40;;;17.50;70.90;;;;;;4936623;28;20046;-61
2023/08/04 01:42:32;;;;;;;0.88;0.47;;;17.50;71.10;;;;;;4937502;28;20074;-63
2023/08/04 01:44:57;;;;;;;2.38;0.75;;;17.50;70.70;;;;;;4927538;29;20118;-62
2023/08/04 01:47:23;;;;;;;0.82;0.32;;;17.50;70.60;;;;;;4936632;28;20117;-62
2023/08/04 01:49:48;;;;;;;0.40;0.30;;;17.50;70.80;;;;;;4936018;28;20073;-62
2023/08/04 01:52:14;;;;;;;1.85;0.63;;;17.40;70.70;;;;;;4936301;28;20063;-63
2023/08/04 01:54:40;;;;;;;0.38;0.28;;;17.40;70.60;;;;;;4936336;28;20036;-60
2023/08/04 01:57:05;;;;;;;1.50;0.40;;;17.40;70.60;;;;;;4935881;28;20049;-62
2023/08/04 01:59:31;;;;;;;1.00;0.35;;;17.40;70.70;;;;;;4939861;28;20039;-62
2023/08/04 02:01:56;;;;;;;0.50;0.30;;;17.40;70.70;;;;;;4937299;28;20529;-62
2023/08/04 02:04:22;;;;;;;0.85;0.30;;;17.40;70.70;;;;;;4937144;28;20038;-62
2023/08/04 02:06:47;;;;;;;1.52;0.52;;;17.40;70.90;;;;;;4935710;28;20098;-62
2023/08/04 02:09:13;;;;;;;1.30;0.60;;;17.40;71.00;;;;;;4936404;28;20054;-62
2023/08/04 02:11:40;;;;;;;2.00;0.40;;;17.30;71.30;;;;;;4936307;28;20044;-62
2023/08/04 02:14:06;;;;;;;2.00;0.70;;;17.30;71.40;;;;;;4938974;28;20379;-62
2023/08/04 02:16:32;;;;;;;0.63;0.50;;;17.20;71.40;;;;;;4935905;28;20032;-62
2023/08/04 02:19:05;;;;;;;0.90;0.40;;;17.20;71.60;;;;;;4936985;28;20047;-61
2023/08/04 02:21:30;;;;;;;0.88;0.40;;;17.20;72.30;;;;;;4938263;28;20043;-62
2023/08/04 02:23:56;;;;;;;2.35;0.50;;;17.20;72.20;;;;;;4936265;28;20059;-62
2023/08/04 02:26:23;;;;;;;0.82;0.40;;;17.10;72.50;;;;;;4938022;28;20075;-62
2023/08/04 02:28:50;;;;;;;0.45;0.38;;;17.10;72.60;;;;;;4936251;28;20043;-61
2023/08/04 02:31:17;;;;;;;0.85;0.45;;;17.10;72.50;;;;;;4937838;28;20473;-61
2023/08/04 02:33:43;;;;;;;0.93;0.50;;;17.10;72.70;;;;;;4938489;28;20605;-62
2023/08/04 02:36:10;;;;;;;0.95;0.40;;;17.00;72.40;;;;;;4940566;28;20032;-62
2023/08/04 02:38:35;;;;;;;0.50;0.30;;;17.00;72.50;;;;;;4938764;28;20036;-61
2023/08/04 02:41:03;;;;;;;1.52;0.60;;;17.00;72.50;;;;;;4939212;28;20522;-61
2023/08/04 02:43:31;;;;;;;2.65;0.70;;;16.90;72.60;;;;;;4939582;29;20036;-63
2023/08/04 02:45:57;;;;;;;1.65;0.40;;;16.90;72.80;;;;;;4936487;28;20047;-61
2023/08/04 02:48:23;;;;;;;1.20;0.50;;;16.90;72.80;;;;;;4937267;28;20051;-62
2023/08/04 02:51:04;;;;;;;0.63;0.40;;;16.90;73.10;;;;;;4935658;28;20043;-61
2023/08/04 02:53:31;;;;;;;0.85;0.50;;;16.80;73.70;;;;;;4936441;28;20048;-62
2023/08/04 02:55:56;;;;;;;0.57;0.30;;;16.80;73.20;;;;;;4939024;28;20043;-62
2023/08/04 02:58:23;;;;;;;3.83;0.73;;;16.80;73.30;;;;;;4936118;28;20049;-62
2023/08/04 03:00:49;;;;;;;2.35;0.50;;;16.80;73.30;;;;;;4936525;28;20349;-62
2023/08/04 03:03:15;;;;;;;1.00;0.68;;;16.80;73.30;;;;;;4937058;28;20126;-62
2023/08/04 03:05:41;;;;;;;1.55;0.50;;;16.80;73.30;;;;;;4934841;28;20479;-60
2023/08/04 03:08:06;;;;;;;1.33;0.45;;;16.80;73.50;;;;;;4935506;28;20056;-62
2023/08/04 03:10:32;;;;;;;1.08;0.60;;;16.80;73.70;;;;;;4936153;28;20042;-61
2023/08/04 03:12:57;;;;;;;3.50;0.60;;;16.80;73.70;;;;;;4936192;28;20547;-62
2023/08/04 03:15:23;;;;;;;1.95;0.50;;;16.80;73.70;;;;;;4935500;28;20636;-61
2023/08/04 03:17:50;;;;;;;3.15;0.50;;;16.90;73.70;;;;;;4937479;28;20035;-60
2023/08/04 03:20:16;;;;;;;1.30;0.60;;;16.90;73.70;;;;;;4935408;28;20061;-60
2023/08/04 03:22:41;;;;;;;0.70;0.60;;;16.90;73.60;;;;;;4935257;28;20506;-60
2023/08/04 03:25:09;;;;;;;2.65;0.77;;;16.90;73.60;;;;;;4937768;28;20484;-61
2023/08/04 03:27:35;;;;;;;0.55;0.50;;;16.90;73.50;;;;;;4936325;28;20036;-62
2023/08/04 03:30:01;;;;;;;1.88;0.32;;;17.10;73.80;;;;;;4934543;28;20081;-61
2023/08/04 03:32:27;;;;;;;1.60;0.50;;;16.90;73.70;;;;;;4937025;28;20098;-62
2023/08/04 03:34:52;;;;;;;3.17;0.80;;;16.90;73.70;;;;;;4934854;28;20693;-60
2023/08/04 03:37:18;;;;;;;0.77;0.40;;;17.00;73.90;;;;;;4935450;28;20048;-62
2023/08/04 03:39:43;;;;;;;0.98;0.50;;;17.00;73.90;;;;;;4934836;28;20135;-62
2023/08/04 03:42:09;;;;;;;0.50;0.50;;;17.00;73.90;;;;;;4936164;28;20069;-62
2023/08/04 03:44:34;;;;;;;0.88;0.40;;;17.00;73.90;;;;;;4936815;28;20044;-60
2023/08/04 03:47:00;;;;;;;1.00;0.57;;;17.10;74.00;;;;;;4934986;28;20177;-62
2023/08/04 03:49:26;;;;;;;1.67;0.40;;;17.10;74.00;;;;;;4935150;28;20047;-60
2023/08/04 03:51:52;;;;;;;0.82;0.40;;;17.10;74.10;;;;;;4934911;28;20049;-62
2023/08/04 03:54:17;;;;;;;1.02;0.60;;;17.20;74.20;;;;;;4934887;28;20404;-61
2023/08/04 03:56:43;;;;;;;1.85;0.60;;;17.20;74.30;;;;;;4935366;28;20039;-62
2023/08/04 03:59:11;;;;;;;0.85;0.30;;;17.20;75.40;;;;;;4935499;28;20039;-60
2023/08/04 04:01:37;;;;;;;0.60;0.30;;;17.20;74.40;;;;;;4936167;28;20470;-62
2023/08/04 04:04:03;;;;;;;0.50;0.40;;;17.30;74.60;;;;;;4936910;28;20146;-61
2023/08/04 04:06:28;;;;;;;2.03;0.60;;;17.20;74.60;;;;;;4933391;28;20039;-62
2023/08/04 04:08:54;;;;;;;0.70;0.50;;;17.20;74.90;;;;;;4935274;28;20046;-61
2023/08/04 04:11:20;;;;;;;1.65;0.50;;;17.30;74.90;;;;;;4937654;28;20155;-60
2023/08/04 04:13:45;;;;;;;1.00;0.40;;;17.30;74.80;;;;;;4934746;28;20044;-62
2023/08/04 04:16:11;;;;;;;2.28;0.60;;;17.30;74.90;;;;;;4935410;28;20134;-62
2023/08/04 04:18:37;;;;;;;0.95;0.75;;;17.30;75.40;;;;;;4914643;28;20071;-62
2023/08/04 04:21:02;;;;;;;3.45;0.80;;;17.30;75.60;;;;;;4937950;28;20059;-61
2023/08/04 04:23:28;;;;;;;3.70;0.57;;;17.30;75.80;;;;;;4936612;28;20047;-62
2023/08/04 04:25:54;;;;;;;2.95;0.60;;;17.30;75.90;;;;;;4931003;28;20047;-62
2023/08/04 04:28:19;;;;;;;1.90;0.65;;;17.40;75.80;;;;;;4930808;28;20823;-62
2023/08/04 04:30:45;;;;;;;2.15;0.50;;;17.40;75.40;;;;;;4934914;28;20036;-62
2023/08/04 04:33:11;;;;;;;1.00;0.60;;;17.40;75.30;;;;;;4935530;28;20395;-63
2023/08/04 04:35:37;;;;;;;1.00;0.45;;;17.30;74.90;;;;;;4937347;28;20511;-63
2023/08/04 04:38:02;;;;;;;2.78;0.65;;;17.30;74.70;;;;;;4940377;28;20496;-62
2023/08/04 04:40:28;;;;;;;1.63;0.68;;;17.40;74.60;;;;;;4942280;28;20026;-62
2023/08/04 04:42:53;;;;;;;0.50;0.40;;;17.30;74.40;;;;;;4941352;29;20123;-62
2023/08/04 04:45:19;;;;;;;0.93;0.50;;;17.30;74.60;;;;;;4941558;28;20031;-62
2023/08/04 04:47:45;;;;;;;0.77;0.60;;;17.30;74.70;;;;;;4941942;28;20031;-62
2023/08/04 04:50:11;;;;;;;0.73;0.50;;;17.30;74.90;;;;;;4940906;28;20422;-61
2023/08/04 04:52:37;;;;;;;1.98;0.93;;;17.30;75.10;;;;;;4940075;28;20051;-62
2023/08/04 04:55:06;;;;;;;3.10;0.85;;;17.30;75.30;;;;;;4942092;28;20040;-61
2023/08/04 04:57:37;;;;;;;1.15;0.77;;;17.30;75.60;;;;;;4939752;28;20052;-61
2023/08/04 05:00:05;;;;;;;2.53;0.70;;;17.30;75.40;;;;;;4942495;28;20118;-62
2023/08/04 05:02:30;;;;;;;1.15;0.65;;;17.30;75.60;;;;;;4941451;28;20039;-62
2023/08/04 05:04:56;;;;;;;1.73;1.02;;;17.30;75.60;;;;;;4942574;28;20035;-62
2023/08/04 05:07:21;;;;;;;1.38;0.70;;;17.30;76.00;;;;;;4943562;28;20047;-63
2023/08/04 05:09:47;;;;;;;1.58;0.70;;;17.20;77.00;;;;;;4942884;28;20046;-62
2023/08/04 05:12:13;;;;;;;2.88;0.80;;;17.20;76.40;;;;;;4926726;29;20035;-61
2023/08/04 05:14:40;;;;;;;1.17;0.90;;;17.20;76.50;;;;;;4940830;28;20187;-62
2023/08/04 05:17:06;;;;;;;4.65;0.77;;;17.20;76.50;;;;;;4941038;28;20043;-62
2023/08/04 05:19:32;;;;;;;2.53;0.88;;;17.20;76.50;;;;;;4941497;28;20070;-61
2023/08/04 05:21:57;;;;;;;1.60;0.80;;;17.20;76.60;;;;;;4939453;28;20637;-62
2023/08/04 05:24:23;;;;;;;1.88;0.80;;;17.20;76.70;;;;;;4937932;28;20051;-62
2023/08/04 05:26:48;;;;;;;2.92;0.80;;;17.20;76.70;;;;;;4939780;28;20498;-62
2023/08/04 05:29:14;;;;;;;1.40;0.70;;;17.20;76.80;;;;;;4943546;28;20039;-61
2023/08/04 05:31:39;;;;;;;3.70;0.70;;;17.20;77.00;;;;;;4941932;29;20039;-61
2023/08/04 05:34:05;;;;;;;2.78;0.88;;;17.30;77.10;;;;;;4939161;28;20127;-62
2023/08/04 05:36:31;;;;;;;2.15;0.80;;;17.30;77.20;;;;;;4937644;28;20040;-62
2023/08/04 05:38:56;;;;;;;5.25;1.00;;;17.30;77.30;;;;;;4940476;28;20507;-63
2023/08/04 05:41:22;;;;;;;2.08;0.73;;;17.40;77.50;;;;;;4939973;28;20046;-62
2023/08/04 05:43:47;;;;;;;2.22;0.70;;;17.40;77.50;;;;;;4939794;28;20122;-62
2023/08/04 05:46:15;;;;;;;2.33;0.75;;;17.50;77.50;;;;;;4939101;28;20550;-61
2023/08/04 05:48:41;;;;;;;0.95;0.50;;;17.50;78.00;;;;;;4937093;28;20457;-62
2023/08/04 05:51:07;;;;;;;0.80;0.43;;;17.60;78.40;;;;;;4938995;28;20046;-62
2023/08/04 05:53:33;;;;;;;1.20;0.45;;;17.60;78.30;;;;;;4940036;28;20043;-62
2023/08/04 05:55:58;;;;;;;1.17;0.40;;;17.70;78.30;;;;;;4941802;28;20039;-63
2023/08/04 05:58:24;;;;;;;1.40;0.43;;;17.80;78.30;;;;;;4941590;28;20511;-62
2023/08/04 06:00:50;;;;;;;0.73;0.43;;;17.80;78.20;;;;;;4936575;28;20118;-62
2023/08/04 06:03:16;;;;;;;3.90;0.77;;;17.90;78.20;;;;;;4940071;28;20043;-62
2023/08/04 06:05:42;;;;;;;3.53;0.45;;;18.00;78.10;;;;;;4940285;28;20125;-61
2023/08/04 06:08:08;;;;;;;1.63;0.50;;;18.00;77.90;;;;;;4940324;28;20035;-62
2023/08/04 06:10:34;;;;;;;1.10;0.40;;;18.10;78.00;;;;;;4939459;28;20041;-60
2023/08/04 06:13:00;;;;;;;1.25;0.57;;;18.10;78.00;;;;;;4938551;28;20038;-62
2023/08/04 06:15:26;;;;;;;2.08;0.60;;;18.20;78.00;;;;;;4938478;29;20570;-60
2023/08/04 06:17:51;;;;;;;0.70;0.40;;;18.20;78.10;;;;;;4937372;28;20048;-61
2023/08/04 06:20:17;;;;;;;3.20;0.52;;;18.30;78.10;;;;;;4941025;28;20027;-62
2023/08/04 06:22:46;;;;;;;1.05;0.38;;;18.30;78.40;;;;;;4939308;28;20546;-62
2023/08/04 06:25:14;;;;;;;2.67;0.40;;;18.40;78.80;;;;;;4940183;28;20035;-64
2023/08/04 06:27:40;;;;;;;2.45;0.47;;;18.50;78.50;;;;;;4937052;28;20039;-63
2023/08/04 06:30:06;;;;;;;1.95;0.30;;;18.50;78.20;;;;;;4937267;28;20046;-62
2023/08/04 06:32:32;;;;;;;4.45;0.50;;;18.60;78.40;;;;;;4937596;28;20539;-62
2023/08/04 06:34:57;;;;;;;1.30;0.52;;;18.70;78.20;;;;;;4940414;28;20058;-62
2023/08/04 06:37:23;;;;;;;0.90;0.55;;;18.80;77.80;;;;;;4938122;28;20098;-63
2023/08/04 06:39:49;;;;;;;0.60;0.30;;;18.90;77.50;;;;;;4939342;28;20049;-62
2023/08/04 06:42:16;;;;;;;1.02;0.30;;;19.00;77.40;;;;;;4937186;28;20046;-62
2023/08/04 06:44:41;;;;;;;1.55;0.57;;;19.10;77.00;;;;;;4936671;28;20058;-61
2023/08/04 06:47:07;;;;;;;0.88;0.28;;;19.10;76.60;;;;;;4938000;29;20511;-62
2023/08/04 06:49:34;;;;;;;1.23;0.40;;;19.20;76.40;;;;;;4937533;28;20072;-62
2023/08/04 06:52:00;;;;;;;1.30;0.50;;;19.20;76.30;;;;;;4937097;28;20043;-61
2023/08/04 06:54:25;;;;;;;0.93;0.40;;;19.20;76.20;;;;;;4937351;28;20039;-60
2023/08/04 06:56:51;;;;;;;3.25;0.60;;;19.20;76.30;;;;;;4937202;28;20074;-62
2023/08/04 06:59:16;;;;;;;2.33;0.40;;;19.30;76.10;;;;;;4937249;29;20662;-61
2023/08/04 07:01:42;;;;;;;0.95;0.52;;;19.30;76.20;;;;;;4937926;28;20058;-62
2023/08/04 07:04:08;;;;;;;1.67;0.90;;;19.30;76.10;;;;;;4939405;29;20083;-62
2023/08/04 07:06:34;;;;;;;2.25;0.60;;;19.40;76.00;;;;;;4937710;28;20040;-61
2023/08/04 07:08:59;;;;;;;2.25;0.43;;;19.50;76.10;;;;;;4937186;28;20512;-61
2023/08/04 07:11:25;;;;;;;1.48;0.40;;;19.50;76.30;;;;;;4938712;28;20034;-61
2023/08/04 07:13:50;;;;;;;2.55;0.60;;;19.50;76.10;;;;;;4939343;28;20031;-62
2023/08/04 07:16:16;;;;;;;2.30;0.50;;;19.60;76.00;;;;;;4936488;28;20042;-62
2023/08/04 07:18:41;;;;;;;2.08;0.68;;;19.70;75.90;;;;;;4936333;28;20043;-61
2023/08/04 07:21:11;;;;;;;0.95;0.50;;;19.70;75.80;;;;;;4937943;28;20032;-59
2023/08/04 07:23:38;;;;;;;4.18;0.40;;;19.80;75.90;;;;;;4938467;28;20039;-62
2023/08/04 07:26:04;;;;;;;0.93;0.40;;;19.80;75.80;;;;;;4937308;28;20036;-62
2023/08/04 07:28:31;;;;;;;0.60;0.43;;;19.90;75.50;;;;;;4935131;28;20039;-63
2023/08/04 07:30:56;;;;;;;1.27;0.63;;;19.90;75.40;;;;;;4937642;29;20495;-62
2023/08/04 07:33:22;;;;;;;1.45;0.32;;;20.00;75.40;;;;;;4936879;28;20054;-62
2023/08/04 07:35:55;;;;;;;1.23;0.50;;;20.10;75.50;;;;;;4938686;28;20051;-60
2023/08/04 07:38:22;;;;;;;3.08;0.60;;;20.20;74.80;;;;;;4939469;28;20071;-60
2023/08/04 07:40:48;;;;;;;1.02;0.40;;;20.20;75.80;;;;;;4937720;28;20039;-61
2023/08/04 07:43:14;;;;;;;2.40;0.75;;;20.30;74.30;;;;;;4938075;29;20034;-62
2023/08/04 07:45:40;;;;;;;1.75;0.30;;;20.40;73.80;;;;;;4938453;28;20403;-62
2023/08/04 07:48:06;;;;;;;3.90;0.30;;;20.40;73.30;;;;;;4937438;28;20035;-62
2023/08/04 07:50:34;;;;;;;0.73;0.20;;;20.50;72.80;;;;;;4932509;28;20035;-62
2023/08/04 07:53:00;;;;;;;1.33;0.28;;;20.60;72.20;;;;;;4934831;28;20555;-61
2023/08/04 07:55:25;;;;;;;0.52;0.20;;;20.70;72.10;;;;;;4937145;28;20046;-62
2023/08/04 07:57:51;;;;;;;0.50;0.30;;;20.70;71.80;;;;;;4936093;28;20050;-62
2023/08/04 08:00:17;;;;;;;0.47;0.20;;;20.80;71.70;;;;;;4936186;28;20039;-62
2023/08/04 08:02:42;;;;;;;1.30;0.30;;;20.80;71.30;;;;;;4935076;28;20040;-61
2023/08/04 08:05:08;;;;;;;0.55;0.30;;;20.90;71.30;;;;;;4938173;28;20051;-62
2023/08/04 08:07:34;;;;;;;0.65;0.20;;;21.00;70.70;;;;;;4918479;28;20532;-62
2023/08/04 08:10:00;;;;;;;1.30;0.45;;;21.10;70.60;;;;;;4939308;28;20040;-62
2023/08/04 08:12:26;;;;;;;1.05;0.32;;;21.20;70.40;;;;;;4941908;28;20191;-62
2023/08/04 08:14:51;;;;;;;0.65;0.30;;;21.30;70.60;;;;;;4941685;28;20396;-62
2023/08/04 08:17:18;;;;;;;0.63;0.22;;;21.40;69.80;;;;;;4938570;29;20284;-61
2023/08/04 08:19:43;;;;;;;0.73;0.20;;;21.50;69.20;;;;;;4941277;28;20048;-62
2023/08/04 08:22:09;;;;;;;0.57;0.20;;;21.60;69.00;;;;;;4941893;28;20440;-59
2023/08/04 08:24:34;;;;;;;1.30;0.30;;;21.70;68.30;;;;;;4940394;28;20043;-60
2023/08/04 08:27:00;;;;;;;1.33;0.30;;;21.70;67.90;;;;;;4940323;28;20063;-62
2023/08/04 08:29:26;;;;;;;0.43;0.20;;;21.80;67.60;;;;;;4941487;28;20047;-60
2023/08/04 08:31:51;;;;;;;1.15;0.40;;;21.90;66.40;;;;;;4941427;28;20031;-63
2023/08/04 08:34:17;;;;;;;0.90;0.30;;;21.90;66.60;;;;;;4941759;29;20504;-62
2023/08/04 08:36:42;;;;;;;0.85;0.20;;;22.00;66.00;;;;;;4941126;28;20428;-62
2023/08/04 08:39:08;;;;;;;1.05;0.20;;;22.00;65.20;;;;;;4939561;28;20083;-62
2023/08/04 08:41:33;;;;;;;2.42;0.40;;;22.00;65.00;;;;;;4944530;28;20094;-62
2023/08/04 08:43:59;;;;;;;1.88;0.30;;;22.00;64.50;;;;;;4941901;28;20039;-62
2023/08/04 08:46:25;;;;;;;1.23;0.40;;;22.00;64.70;;;;;;4942576;29;20042;-62
2023/08/04 08:48:57;;;;;;;2.53;0.57;;;22.00;64.50;;;;;;4943659;28;20099;-61
2023/08/04 08:51:23;;;;;;;0.30;0.20;;;22.00;66.00;;;;;;4942604;28;20032;-60
2023/08/04 08:53:49;;;;;;;3.42;0.30;;;22.00;66.90;;;;;;4938914;28;20664;-60
2023/08/04 08:56:15;;;;;;;0.88;0.43;;;21.90;67.00;;;;;;4941045;28;20050;-60
2023/08/04 08:58:42;;;;;;;1.17;0.40;;;21.80;67.40;;;;;;4938767;28;20036;-60
2023/08/04 09:01:08;;;;;;;1.02;0.30;;;21.70;68.10;;;;;;4940960;28;20558;-60
2023/08/04 09:03:35;;;;;;;0.95;0.32;;;21.60;68.10;;;;;;4940864;28;20040;-58
2023/08/04 09:06:01;;;;;;;0.50;0.20;;;21.50;68.50;;;;;;4940377;28;20041;-60
2023/08/04 09:08:27;;;;;;;0.85;0.38;;;21.40;69.20;;;;;;4938549;28;20533;-59
2023/08/04 09:10:53;;;;;;;0.68;0.30;;;21.30;70.20;;;;;;4940439;28;20055;-60
2023/08/04 09:13:19;;;;;;;1.70;0.30;;;21.20;71.00;;;;;;4940362;28;20110;-60
2023/08/04 09:15:53;;;;;;;0.73;0.30;;;21.20;71.60;;;;;;4939669;28;20036;-59
2023/08/04 09:18:36;;;;;;;0.30;0.17;;;21.20;72.80;;;;;;4938702;28;20623;-59
2023/08/04 09:21:08;;;;;;;0.25;0.20;;;21.10;72.40;;;;;;4939106;29;20287;-60
2023/08/04 09:23:51;;;;;;;0.65;0.20;;;21.10;72.90;;;;;;4940300;28;20086;-59
2023/08/04 09:26:18;;;;;;;0.63;0.40;;;21.00;73.80;;;;;;4940333;28;20550;-58
2023/08/04 09:28:44;;;;;;;0.47;0.20;;;21.10;72.80;;;;;;4938748;28;20490;-60
2023/08/04 09:31:13;;;;;;;0.68;0.30;;;21.10;71.90;;;;;;4940208;28;20128;-60
2023/08/04 09:33:43;;;;;;;1.05;0.30;;;21.20;70.70;;;;;;4938690;28;20039;-61
2023/08/04 09:36:16;;;;;;;0.47;0.20;;;21.30;70.70;;;;;;4933959;28;20122;-60
2023/08/04 09:38:42;;;;;;;1.25;0.40;;;21.30;71.00;;;;;;4938875;28;20061;-59
2023/08/04 09:41:10;;;;;;;1.35;0.30;;;21.40;71.20;;;;;;4938522;28;20039;-60
2023/08/04 09:43:46;;;;;;;0.50;0.20;;;21.40;70.30;;;;;;4938868;28;20031;-58
2023/08/04 09:46:12;;;;;;;0.47;0.30;;;21.50;69.60;;;;;;4939223;28;20570;-62
2023/08/04 09:48:38;;;;;;;0.65;0.22;;;21.50;69.50;;;;;;4938707;28;20043;-60
2023/08/04 09:51:15;;;;;;;0.57;0.22;;;21.50;70.20;;;;;;4940250;28;20512;-61
2023/08/04 09:53:43;;;;;;;0.30;0.20;;;21.50;70.40;;;;;;4938713;28;20035;-60
2023/08/04 09:56:10;;;;;;;1.20;0.40;;;21.60;69.70;;;;;;4939964;28;20035;-60
2023/08/04 09:58:36;;;;;;;0.65;0.30;;;21.50;69.50;;;;;;4938873;28;20043;-61
2023/08/04 10:01:02;;;;;;;3.20;0.60;;;21.70;69.80;;;;;;4937985;28;20044;-61
2023/08/04 10:03:28;;;;;;;0.98;0.40;;;21.70;68.90;;;;;;4938920;28;20157;-62
2023/08/04 10:05:59;;;;;;;0.82;0.38;;;21.70;68.60;;;;;;4939222;28;20162;-61
2023/08/04 10:08:32;;;;;;;4.18;0.40;;;21.80;68.50;;;;;;4939688;28;20404;-61
2023/08/04 10:10:58;;;;;;;0.65;0.30;;;21.90;68.70;;;;;;4941562;28;20031;-61
2023/08/04 10:13:31;;;;;;;1.05;0.47;;;22.00;68.90;;;;;;4940807;28;20542;-60
2023/08/04 10:15:58;;;;;;;1.33;0.50;;;22.00;67.80;;;;;;4940124;28;20043;-61
2023/08/04 10:18:25;;;;;;;0.28;0.20;;;22.10;67.80;;;;;;4939341;28;20043;-60
2023/08/04 10:20:52;;;;;;;1.38;0.40;;;22.20;67.20;;;;;;4937821;28;20038;-59
2023/08/04 10:23:18;;;;;;;0.95;0.40;;;22.20;66.70;;;;;;4939021;28;20035;-60
2023/08/04 10:26:02;;;;;;;0.88;0.20;;;22.30;66.00;;;;;;4938899;28;20094;-64
2023/08/04 10:28:31;;;;;;;0.95;0.30;;;22.30;65.40;;;;;;4939595;28;20043;-60
2023/08/04 10:31:12;;;;;;;0.75;0.20;;;22.40;64.90;;;;;;4940599;28;20550;-61
2023/08/04 10:33:38;;;;;;;0.60;0.20;;;22.40;65.30;;;;;;4940347;28;20040;-59
2023/08/04 10:36:10;;;;;;;0.93;0.38;;;22.50;66.00;;;;;;4936603;28;20046;-61
2023/08/04 10:38:46;;;;;;;1.05;0.57;;;22.60;65.70;;;;;;4936509;28;20403;-60
2023/08/04 10:41:12;;;;;;;2.17;0.40;;;22.70;65.20;;;;;;4936103;28;20535;-60
2023/08/04 10:43:39;;;;;;;1.25;0.32;;;22.70;65.30;;;;;;4938648;28;20062;-61
2023/08/04 10:46:10;;;;;;;1.00;0.30;;;22.80;64.70;;;;;;4938373;28;20039;-62
2023/08/04 10:48:40;;;;;;;0.40;0.20;;;22.90;64.30;;;;;;4937383;28;20047;-61
2023/08/04 10:51:08;;;;;;;2.08;0.25;;;23.00;64.30;;;;;;4939528;28;20035;-61
2023/08/04 10:53:34;;;;;;;1.10;0.40;;;23.10;64.30;;;;;;4938369;28;20458;-60
2023/08/04 10:56:02;;;;;;;0.50;0.30;;;23.20;64.30;;;;;;4937682;28;20043;-61
2023/08/04 10:58:28;;;;;;;2.25;0.55;;;23.30;62.30;;;;;;4935599;28;20459;-61
2023/08/04 11:00:55;;;;;;;0.60;0.30;;;23.30;61.50;;;;;;4935515;28;20565;-61
2023/08/04 11:03:27;;;;;;;1.10;0.40;;;23.40;61.80;;;;;;4937140;28;20035;-61
2023/08/04 11:05:53;;;;;;;1.17;0.45;;;23.40;61.90;;;;;;4938228;28;20035;-62
2023/08/04 11:08:20;;;;;;;0.35;0.20;;;23.50;61.60;;;;;;4938493;28;20400;-63
2023/08/04 11:10:51;;;;;;;1.48;0.30;;;23.60;61.30;;;;;;4937556;28;20035;-63
2023/08/04 11:13:18;;;;;;;0.60;0.30;;;23.70;61.00;;;;;;4936749;28;20059;-62
2023/08/04 11:15:45;;;;;;;0.88;0.40;;;23.80;60.60;;;;;;4936421;28;20039;-61
2023/08/04 11:18:27;;;;;;;1.33;0.40;;;23.90;60.20;;;;;;4938648;28;20035;-62
2023/08/04 11:20:53;;;;;;;1.60;0.30;;;23.90;59.40;;;;;;4938239;28;20038;-61
2023/08/04 11:23:27;;;;;;;1.48;0.40;;;23.90;59.70;;;;;;4938860;28;20043;-64
2023/08/04 11:25:53;;;;;;;0.73;0.20;;;24.00;59.40;;;;;;4937613;28;20587;-63
2023/08/04 11:28:23;;;;;;;0.98;0.30;;;24.00;59.30;;;;;;4940558;28;20047;-62
2023/08/04 11:30:52;;;;;;;0.73;0.20;;;24.00;58.80;;;;;;4930180;28;20039;-61
2023/08/04 11:33:17;;;;;;;0.17;0.13;;;24.00;58.00;;;;;;4937727;28;20106;-62
2023/08/04 11:35:45;;;;;;;0.40;0.30;;;24.00;57.50;;;;;;4938303;28;20123;-61
2023/08/04 11:38:11;;;;;;;0.55;0.30;;;24.00;57.60;;;;;;4937069;28;20046;-62
2023/08/04 11:40:52;;;;;;;0.60;0.30;;;24.00;57.40;;;;;;4936619;28;20027;-62
2023/08/04 11:43:18;;;;;;;0.32;0.10;;;24.00;57.40;;;;;;4937071;28;20408;-63
2023/08/04 11:45:47;;;;;;;1.08;0.30;;;24.00;57.70;;;;;;4936312;29;20046;-63
2023/08/04 11:48:12;;;;;;;1.13;0.30;;;24.10;57.30;;;;;;4899115;28;1079759;-62
2023/08/04 11:50:38;;;;;;;1.10;0.35;;;24.10;57.10;;;;;;4937613;28;20522;-62
2023/08/04 11:53:03;;;;;;;1.00;0.28;;;24.00;57.20;;;;;;4938062;28;20031;-62
2023/08/04 11:55:29;;;;;;;0.77;0.30;;;24.00;57.40;;;;;;4936722;28;20031;-62
2023/08/04 11:57:55;;;;;;;0.80;0.13;;;24.00;57.60;;;;;;4937401;28;20040;-62
2023/08/04 12:00:34;;;;;;;2.03;0.30;;;24.10;57.30;;;;;;4937125;28;20047;-63
2023/08/04 12:03:01;;;;;;;0.85;0.20;;;24.10;57.30;;;;;;4937343;28;20531;-64
2023/08/04 12:05:32;;;;;;;0.77;0.28;;;24.10;57.30;;;;;;4937615;28;20051;-62
2023/08/04 12:07:59;;;;;;;0.17;0.17;;;24.10;57.10;;;;;;4936457;28;20538;-61
2023/08/04 12:10:25;;;;;;;0.75;0.17;;;24.10;57.00;;;;;;4938489;28;20597;-62
2023/08/04 12:12:51;;;;;;;0.30;0.10;;;24.20;56.70;;;;;;4935279;28;20039;-62
2023/08/04 12:15:17;;;;;;;0.40;0.20;;;24.20;56.30;;;;;;4936739;28;20094;-63
2023/08/04 12:17:43;;;;;;;0.20;0.20;;;24.20;56.50;;;;;;4923960;28;20043;-61
2023/08/04 12:20:11;;;;;;;1.52;0.20;;;24.20;56.50;;;;;;4930659;28;20407;-61
2023/08/04 12:22:38;;;;;;;0.82;0.20;;;24.20;56.00;;;;;;4927257;28;20049;-62
2023/08/04 12:25:07;;;;;;;0.47;0.20;;;24.20;56.20;;;;;;4934923;28;20040;-61
2023/08/04 12:27:33;;;;;;;0.70;0.20;;;24.30;56.30;;;;;;4936081;28;20105;-61
2023/08/04 12:29:59;;;;;;;0.90;0.30;;;24.30;56.10;;;;;;4932115;28;20047;-62
2023/08/04 12:32:25;;;;;;;0.77;0.10;;;24.30;55.10;;;;;;4938486;28;20448;-62
2023/08/04 12:34:50;;;;;;;0.95;0.20;;;24.40;55.80;;;;;;4938156;28;20028;-62
2023/08/04 12:37:16;;;;;;;0.50;0.20;;;24.40;55.90;;;;;;4933461;28;20039;-61
2023/08/04 12:39:44;;;;;;;0.82;0.30;;;24.40;56.00;;;;;;4936450;28;20043;-61
2023/08/04 12:42:10;;;;;;;0.80;0.30;;;24.50;55.90;;;;;;4938733;28;20394;-61
2023/08/04 12:44:36;;;;;;;1.00;0.40;;;24.50;55.90;;;;;;4934204;28;20027;-61
2023/08/04 12:47:02;;;;;;;0.73;0.20;;;24.60;56.10;;;;;;4937943;28;20206;-61